Time;durP1;ratioP1;P1;durP2;ratioP2;P2;SDS_P1;SDS_P2;PMS_P1;PMS_P2;Temp;Humidity;BMP_temperature;BMP_pressure;BME280_temperature;BME280_humidity;BME280_pressure;Samples;Min_cycle;Max_cycle;Signal;HPM_P1;HPM_P2
2023/04/21 00:01:34;;;;;;;40.53;13.63;;;;;;;8.20;94.61;97799.72;4188079;28;20723;-82
2023/04/21 00:03:37;;;;;;;42.03;14.03;;;;;;;8.15;94.75;97803.56;4183021;28;20289;-81
2023/04/21 00:05:41;;;;;;;33.75;13.15;;;;;;;8.11;94.44;97812.41;4185504;28;21328;-81
2023/04/21 00:07:44;;;;;;;31.50;12.73;;;;;;;8.06;95.09;97810.09;4199558;28;20217;-82
2023/04/21 00:09:47;;;;;;;33.20;13.70;;;;;;;8.03;95.47;97799.91;4171406;28;20202;-82
2023/04/21 00:11:50;;;;;;;22.10;12.43;;;;;;;8.00;94.32;97802.69;4186819;28;20765;-82
2023/04/21 00:13:55;;;;;;;27.70;13.40;;;;;;;7.97;95.51;97804.66;4185521;28;20662;-82
2023/04/21 00:15:59;;;;;;;34.42;13.65;;;;;;;7.96;95.93;97800.41;4173226;28;21260;-82
2023/04/21 00:18:02;;;;;;;24.02;13.45;;;;;;;7.98;96.19;97798.53;4163690;28;20725;-82
2023/04/21 00:20:07;;;;;;;27.35;12.93;;;;;;;7.96;96.26;97794.38;4202607;28;20210;-81
2023/04/21 00:22:13;;;;;;;32.13;13.60;;;;;;;7.93;96.00;97794.56;4185271;28;20209;-82
2023/04/21 00:24:16;;;;;;;63.83;15.70;;;;;;;7.91;96.17;97786.03;4186420;28;21061;-81
2023/04/21 00:26:20;;;;;;;45.05;14.15;;;;;;;7.90;95.25;97789.56;4185828;28;20275;-82
2023/04/21 00:28:25;;;;;;;20.52;12.18;;;;;;;7.88;94.91;97787.06;4184936;28;20224;-82
2023/04/21 00:30:28;;;;;;;28.95;13.05;;;;;;;7.87;94.91;97781.97;4194084;28;20217;-82
2023/04/21 00:32:34;;;;;;;24.73;13.27;;;;;;;7.82;94.38;97771.03;4172793;28;20212;-81
2023/04/21 00:34:37;;;;;;;12.90;11.50;;;;;;;7.78;95.27;97772.97;4187188;28;20249;-81
2023/04/21 00:36:40;;;;;;;15.35;12.95;;;;;;;7.77;95.02;97773.94;4183227;28;20218;-82
2023/04/21 00:38:43;;;;;;;15.95;13.02;;;;;;;7.78;94.78;97772.97;4186909;28;21888;-81
2023/04/21 00:40:46;;;;;;;17.23;13.40;;;;;;;7.77;94.24;97766.16;4188304;28;20288;-81
2023/04/21 00:42:50;;;;;;;17.98;14.02;;;;;;;7.70;93.99;97770.03;4183996;28;20583;-81
2023/04/21 00:44:53;;;;;;;16.60;13.55;;;;;;;7.65;95.77;97769.50;4183655;28;20309;-81
2023/04/21 00:46:56;;;;;;;18.25;14.05;;;;;;;7.63;94.73;97767.91;4185579;28;20244;-81
2023/04/21 00:49:03;;;;;;;23.60;13.43;;;;;;;7.61;95.91;97762.00;4190093;28;20677;-82
2023/04/21 00:51:06;;;;;;;20.08;13.35;;;;;;;7.60;95.41;97771.53;4168717;28;20210;-81
2023/04/21 00:53:10;;;;;;;19.33;12.85;;;;;;;7.58;94.42;97762.19;4171451;28;20223;-82
2023/04/21 00:55:13;;;;;;;16.30;11.68;;;;;;;7.57;94.08;97760.50;4184350;28;20240;-81
2023/04/21 00:57:17;;;;;;;17.77;10.93;;;;;;;7.54;94.91;97771.09;4167268;28;20248;-81
2023/04/21 00:59:20;;;;;;;19.10;10.57;;;;;;;7.50;93.88;97767.00;4185761;28;20214;-82
2023/04/21 01:01:24;;;;;;;49.38;14.25;;;;;;;7.51;93.85;97764.31;4187775;28;20297;-81
2023/04/21 01:03:27;;;;;;;47.88;15.23;;;;;;;7.50;95.11;97754.03;4184346;28;20225;-82
2023/04/21 01:05:32;;;;;;;44.22;14.25;;;;;;;7.52;95.62;97755.59;4170798;28;20667;-81
2023/04/21 01:07:35;;;;;;;64.90;15.85;;;;;;;7.53;94.94;97759.88;4173384;28;20827;-81
2023/04/21 01:09:38;;;;;;;39.17;13.93;;;;;;;7.52;95.29;97765.16;4176799;28;20213;-81
2023/04/21 01:11:41;;;;;;;32.60;13.05;;;;;;;7.52;96.76;97768.56;4167800;28;20264;-81
2023/04/21 01:13:45;;;;;;;35.85;13.30;;;;;;;7.51;96.12;97758.28;4185094;28;20282;-81
2023/04/21 01:15:48;;;;;;;25.83;13.50;;;;;;;7.50;95.40;97754.03;4170430;28;20205;-81
2023/04/21 01:17:52;;;;;;;33.97;12.55;;;;;;;7.48;96.16;97752.47;4183202;28;20201;-81
2023/04/21 01:19:57;;;;;;;51.80;13.68;;;;;;;7.45;94.73;97750.88;4169879;28;20245;-81
2023/04/21 01:22:03;;;;;;;27.00;13.13;;;;;;;7.46;96.17;97759.50;4189704;28;20273;-81
2023/04/21 01:24:07;;;;;;;28.88;13.35;;;;;;;7.45;95.60;97750.88;4171408;28;20603;-81
2023/04/21 01:26:10;;;;;;;38.55;12.98;;;;;;;7.46;96.06;97747.38;4159866;28;20701;-81
2023/04/21 01:28:13;;;;;;;30.08;11.90;;;;;;;7.46;95.42;97751.72;4173918;28;20300;-81
2023/04/21 01:30:16;;;;;;;22.25;11.88;;;;;;;7.45;94.94;97747.47;4168957;28;20206;-81
2023/04/21 01:32:22;;;;;;;33.63;13.07;;;;;;;7.44;95.62;97746.63;4189593;28;20883;-81
2023/04/21 01:34:27;;;;;;;36.47;12.67;;;;;;;7.46;96.09;97737.00;4168686;28;20315;-81
2023/04/21 01:36:30;;;;;;;41.60;13.40;;;;;;;7.44;95.75;97741.44;4167054;28;20992;-81
2023/04/21 01:38:38;;;;;;;37.20;11.60;;;;;;;7.45;95.64;97730.13;4182179;28;20220;-81
2023/04/21 01:40:41;;;;;;;23.25;11.52;;;;;;;7.44;95.19;97732.81;4188548;28;20231;-81
2023/04/21 01:42:45;;;;;;;23.60;11.75;;;;;;;7.45;96.44;97732.72;4169826;28;20220;-81
2023/04/21 01:44:49;;;;;;;31.63;11.25;;;;;;;7.44;96.30;97732.81;4185642;28;20764;-81
2023/04/21 01:46:52;;;;;;;22.30;10.57;;;;;;;7.44;94.60;97725.88;4180064;28;20240;-81
2023/04/21 01:48:55;;;;;;;11.23;9.63;;;;;;;7.45;95.76;97724.94;4180799;28;20204;-81
2023/04/21 01:50:59;;;;;;;14.18;11.40;;;;;;;7.48;95.12;97737.72;4176873;28;20224;-82
2023/04/21 01:53:02;;;;;;;15.98;11.52;;;;;;;7.50;94.79;97735.88;4188034;28;20342;-81
2023/04/21 01:55:07;;;;;;;17.60;12.80;;;;;;;7.51;94.91;97735.78;4189894;28;20232;-81
2023/04/21 01:57:10;;;;;;;26.52;13.25;;;;;;;7.53;95.46;97736.53;4172683;28;21617;-81
2023/04/21 01:59:15;;;;;;;29.40;13.40;;;;;;;7.52;95.15;97740.03;4180207;28;20213;-81
2023/04/21 02:01:18;;;;;;;43.95;14.40;;;;;;;7.54;95.47;97740.78;4189656;28;20339;-81
2023/04/21 02:03:21;;;;;;;31.73;13.32;;;;;;;7.56;95.46;97738.09;4187807;28;20205;-81
2023/04/21 02:05:25;;;;;;;32.90;13.40;;;;;;;7.56;95.90;97736.34;4182930;28;20233;-80
2023/04/21 02:07:28;;;;;;;33.85;13.40;;;;;;;7.59;96.50;97737.88;4179863;28;20214;-81
2023/04/21 02:09:31;;;;;;;50.97;14.30;;;;;;;7.61;96.34;97736.06;4186889;28;20596;-81
2023/04/21 02:11:36;;;;;;;36.25;14.50;;;;;;;7.61;97.15;97746.44;4191093;28;20252;-81
2023/04/21 02:13:39;;;;;;;64.82;15.32;;;;;;;7.63;96.36;97754.94;4189683;28;20210;-80
2023/04/21 02:15:42;;;;;;;39.00;13.98;;;;;;;7.64;95.74;97752.25;4190091;28;20701;-81
2023/04/21 02:17:46;;;;;;;51.05;14.18;;;;;;;7.63;97.21;97740.19;4174951;28;20869;-81
2023/04/21 02:19:49;;;;;;;42.83;13.23;;;;;;;7.60;96.59;97736.97;4188388;28;20355;-81
2023/04/21 02:21:52;;;;;;;56.00;14.77;;;;;;;7.60;96.64;97745.56;4171996;28;20553;-81
2023/04/21 02:23:57;;;;;;;53.88;14.88;;;;;;;7.64;95.43;97756.63;4162010;28;20638;-81
2023/04/21 02:26:01;;;;;;;38.70;14.13;;;;;;;7.63;95.61;97749.75;4186659;28;20291;-81
2023/04/21 02:28:11;;;;;;;24.60;13.00;;;;;;;7.65;96.25;97748.75;4185075;28;20209;-81
2023/04/21 02:30:14;;;;;;;47.00;15.25;;;;;;;7.68;96.36;97751.16;4174192;28;20206;-81
2023/04/21 02:32:17;;;;;;;45.88;16.63;;;;;;;7.70;96.83;97748.47;4191832;28;20266;-81
2023/04/21 02:34:28;;;;;;;39.38;14.63;;;;;;;7.72;96.51;97749.19;4187963;28;20263;-80
2023/04/21 02:36:31;;;;;;;37.35;14.15;;;;;;;7.74;97.90;97744.72;4186884;28;20207;-81
2023/04/21 02:38:34;;;;;;;28.73;14.60;;;;;;;7.72;96.85;97746.59;4172715;28;20206;-81
2023/04/21 02:40:37;;;;;;;82.38;16.17;;;;;;;7.68;94.54;97747.69;4190078;28;20411;-81
2023/04/21 02:42:40;;;;;;;30.98;12.88;;;;;;;7.60;94.37;97735.19;4189267;28;20238;-81
2023/04/21 02:44:45;;;;;;;30.00;13.50;;;;;;;7.54;94.45;97739.94;4187624;28;20205;-81
2023/04/21 02:46:48;;;;;;;25.38;12.35;;;;;;;7.49;96.07;97731.63;4185073;28;20209;-81
2023/04/21 02:48:52;;;;;;;46.05;14.02;;;;;;;7.45;94.63;97737.09;4189632;28;20197;-81
2023/04/21 02:50:55;;;;;;;37.97;12.93;;;;;;;7.41;96.19;97731.25;4186411;28;20259;-81
2023/04/21 02:52:58;;;;;;;44.63;12.70;;;;;;;7.38;94.82;97723.69;4188264;28;20197;-80
2023/04/21 02:55:02;;;;;;;38.53;13.88;;;;;;;7.34;95.78;97727.38;4183128;28;20233;-81
2023/04/21 02:57:05;;;;;;;40.80;13.38;;;;;;;7.32;95.16;97728.38;4180130;28;20229;-80
2023/04/21 02:59:10;;;;;;;48.42;14.43;;;;;;;7.33;96.00;97736.06;4188914;28;20216;-81
2023/04/21 03:01:16;;;;;;;38.17;11.20;;;;;;;7.30;95.98;97733.66;4181328;28;20245;-80
2023/04/21 03:03:19;;;;;;;44.75;13.98;;;;;;;7.28;94.99;97739.91;4192735;28;20587;-81
2023/04/21 03:05:22;;;;;;;101.68;17.13;;;;;;;7.28;96.24;97751.09;4190474;28;20304;-81
2023/04/21 03:07:26;;;;;;;35.80;13.40;;;;;;;7.28;95.51;97751.09;4174636;28;20237;-81
2023/04/21 03:09:29;;;;;;;38.45;14.82;;;;;;;7.31;95.91;97747.50;4171470;28;20213;-81
2023/04/21 03:11:32;;;;;;;74.88;17.77;;;;;;;7.32;96.30;97743.94;4185842;28;20209;-81
2023/04/21 03:13:35;;;;;;;95.60;15.52;;;;;;;7.34;97.38;97744.72;4194025;28;20211;-81
2023/04/21 03:15:38;;;;;;;80.75;15.95;;;;;;;7.38;96.69;97748.75;4190186;28;20222;-81
2023/04/21 03:17:42;;;;;;;69.88;14.07;;;;;;;7.39;96.82;97755.63;4175232;28;20223;-81
2023/04/21 03:19:46;;;;;;;109.38;16.30;;;;;;;7.39;98.08;97747.84;4174508;28;20741;-81
2023/04/21 03:21:49;;;;;;;80.07;13.93;;;;;;;7.34;96.63;97748.13;4165878;28;20281;-81
2023/04/21 03:23:53;;;;;;;86.18;15.73;;;;;;;7.30;96.55;97741.44;4185814;28;20213;-81
2023/04/21 03:25:56;;;;;;;60.15;14.63;;;;;;;7.27;96.91;97741.63;4172006;28;20202;-81
2023/04/21 03:27:59;;;;;;;51.80;13.63;;;;;;;7.28;96.76;97737.31;4173286;28;20220;-81
2023/04/21 03:30:02;;;;;;;49.97;13.23;;;;;;;7.23;98.17;97729.81;4173898;28;20202;-80
2023/04/21 03:32:05;;;;;;;51.08;12.98;;;;;;;7.22;98.29;97728.13;4172131;28;20231;-81
2023/04/21 03:34:10;;;;;;;61.72;13.15;;;;;;;7.23;98.24;97731.53;4190588;28;20435;-81
2023/04/21 03:36:14;;;;;;;35.78;11.95;;;;;;;7.21;97.50;97729.03;4187576;28;20253;-81
2023/04/21 03:38:17;;;;;;;43.95;11.60;;;;;;;7.17;98.59;97730.19;4186431;28;20908;-80
2023/04/21 03:40:21;;;;;;;34.20;11.65;;;;;;;7.17;98.22;97731.91;4186509;28;20252;-81
2023/04/21 03:42:25;;;;;;;29.08;10.70;;;;;;;7.16;97.45;97725.09;4186985;28;20209;-80
2023/04/21 03:44:28;;;;;;;27.23;11.00;;;;;;;7.16;98.33;97733.69;4176975;28;20202;-81
2023/04/21 03:46:31;;;;;;;47.75;12.93;;;;;;;7.15;97.75;97719.03;4176720;28;20803;-81
2023/04/21 03:48:35;;;;;;;37.30;10.98;;;;;;;7.15;97.93;97729.41;4176001;28;20213;-81
2023/04/21 03:50:39;;;;;;;65.88;14.57;;;;;;;7.18;97.90;97725.81;4185588;28;20213;-80
2023/04/21 03:52:42;;;;;;;34.03;11.73;;;;;;;7.16;98.23;97722.50;4191770;28;20236;-80
2023/04/21 03:54:45;;;;;;;28.48;10.43;;;;;;;7.16;97.12;97728.50;4191074;28;20707;-80
2023/04/21 03:56:49;;;;;;;43.95;11.50;;;;;;;7.14;96.60;97712.22;4187001;28;20714;-81
2023/04/21 03:58:52;;;;;;;43.22;11.32;;;;;;;7.12;97.83;97724.41;4185222;28;20576;-81
2023/04/21 04:00:55;;;;;;;30.83;10.02;;;;;;;7.13;96.34;97733.03;4170188;28;20210;-81
2023/04/21 04:02:58;;;;;;;36.60;10.38;;;;;;;7.11;96.75;97729.69;4184937;28;20211;-81
2023/04/21 04:05:02;;;;;;;42.55;11.90;;;;;;;7.06;95.88;97731.75;4169573;28;20245;-81
2023/04/21 04:07:08;;;;;;;32.25;9.75;;;;;;;7.04;96.72;97721.47;4174258;28;20539;-81
2023/04/21 04:09:11;;;;;;;50.90;11.07;;;;;;;7.01;96.93;97725.19;4201234;28;20593;-81
2023/04/21 04:11:15;;;;;;;36.45;10.55;;;;;;;6.98;96.98;97725.38;4186360;28;20220;-80
2023/04/21 04:13:18;;;;;;;32.75;10.57;;;;;;;6.98;97.28;97727.97;4190612;28;20200;-81
2023/04/21 04:15:21;;;;;;;46.25;12.85;;;;;;;6.99;97.44;97729.59;4186862;28;20707;-81
2023/04/21 04:17:24;;;;;;;40.30;10.65;;;;;;;6.97;96.88;97729.69;4169722;28;20297;-81
2023/04/21 04:19:30;;;;;;;69.72;14.20;;;;;;;6.94;96.92;97732.47;4190865;28;20354;-81
2023/04/21 04:21:34;;;;;;;52.38;11.48;;;;;;;6.94;96.43;97731.66;4181056;28;20214;-81
2023/04/21 04:23:38;;;;;;;57.63;11.50;;;;;;;6.94;96.75;97737.66;4189139;28;20205;-81
2023/04/21 04:25:41;;;;;;;28.27;10.40;;;;;;;6.92;96.35;97741.28;4183029;28;20206;-81
2023/04/21 04:27:45;;;;;;;28.35;9.45;;;;;;;6.90;96.90;97750.88;4185654;28;20580;-81
2023/04/21 04:29:48;;;;;;;51.50;12.07;;;;;;;6.89;95.66;97751.84;4185058;28;20262;-81
2023/04/21 04:31:52;;;;;;;46.80;12.80;;;;;;;6.89;95.54;97746.66;4168028;28;20761;-81
2023/04/21 04:33:55;;;;;;;45.45;11.48;;;;;;;6.89;96.23;97744.88;4204386;28;20664;-81
2023/04/21 04:36:00;;;;;;;77.85;11.95;;;;;;;6.91;96.00;97742.19;4188608;28;20282;-81
2023/04/21 04:38:03;;;;;;;33.83;10.15;;;;;;;6.92;95.85;97741.28;4182272;28;20213;-81
2023/04/21 04:40:11;;;;;;;36.22;10.75;;;;;;;6.90;96.33;97745.69;4181745;28;20255;-80
2023/04/21 04:42:13;;;;;;;26.58;9.60;;;;;;;6.88;96.47;97761.34;4185530;28;20207;-81
2023/04/21 04:44:17;;;;;;;22.20;8.43;;;;;;;6.85;95.65;97768.47;4189147;28;20236;-80
2023/04/21 04:46:21;;;;;;;22.00;9.65;;;;;;;6.82;96.06;97779.00;4187075;28;20213;-80
2023/04/21 04:48:25;;;;;;;21.15;8.65;;;;;;;6.81;95.83;97772.16;4186720;28;20209;-81
2023/04/21 04:50:28;;;;;;;37.47;9.77;;;;;;;6.78;95.34;97770.59;4183921;28;20636;-81
2023/04/21 04:52:31;;;;;;;39.97;10.32;;;;;;;6.85;96.12;97758.09;4183591;28;20209;-81
2023/04/21 04:54:35;;;;;;;40.58;14.35;;;;;;;6.89;95.65;97759.59;4182703;28;20739;-81
2023/04/21 04:56:39;;;;;;;22.02;11.60;;;;;;;6.90;96.13;97756.06;4185084;28;20226;-81
2023/04/21 04:58:45;;;;;;;20.75;8.55;;;;;;;6.91;95.86;97763.75;4185661;28;20251;-81
2023/04/21 05:00:48;;;;;;;30.02;8.55;;;;;;;6.87;95.73;97772.66;4175539;28;20205;-81
2023/04/21 05:02:51;;;;;;;23.75;10.10;;;;;;;6.85;95.66;97769.28;4187551;28;20199;-80
2023/04/21 05:04:54;;;;;;;19.42;9.25;;;;;;;6.83;95.45;97773.75;4185751;28;20233;-81
2023/04/21 05:06:57;;;;;;;16.05;9.18;;;;;;;6.85;95.76;97784.03;4190445;28;20199;-81
2023/04/21 05:09:00;;;;;;;14.20;9.43;;;;;;;6.86;95.71;97785.69;4191529;28;20201;-81
2023/04/21 05:11:04;;;;;;;12.98;9.90;;;;;;;6.92;95.27;97783.56;4184691;28;20687;-81
2023/04/21 05:13:08;;;;;;;14.18;11.73;;;;;;;7.01;95.42;97769.25;4193997;28;20253;-81
2023/04/21 05:15:11;;;;;;;12.90;10.50;;;;;;;7.10;96.43;97762.56;4167107;28;20208;-81
2023/04/21 05:17:15;;;;;;;13.45;10.27;;;;;;;7.19;96.27;97769.81;4170298;28;20253;-80
2023/04/21 05:19:18;;;;;;;22.73;10.00;;;;;;;7.26;96.70;97770.25;4169937;28;20237;-81
2023/04/21 05:21:26;;;;;;;17.85;10.52;;;;;;;7.34;96.95;97787.03;4185589;28;20740;-81
2023/04/21 05:23:29;;;;;;;34.50;10.70;;;;;;;7.40;96.17;97778.88;4183898;28;20266;-80
2023/04/21 05:25:33;;;;;;;37.53;10.57;;;;;;;7.46;96.38;97788.88;4172472;28;20610;-81
2023/04/21 05:27:36;;;;;;;22.17;11.20;;;;;;;7.51;96.62;97792.84;4182536;28;20239;-81
2023/04/21 05:29:40;;;;;;;21.90;10.50;;;;;;;7.59;96.43;97789.78;4184399;28;20201;-80
2023/04/21 05:31:43;;;;;;;26.95;10.85;;;;;;;7.70;97.46;97785.63;4176673;28;20661;-80
2023/04/21 05:33:47;;;;;;;14.95;12.10;;;;;;;7.82;96.36;97787.44;4183304;28;20722;-81
2023/04/21 05:35:51;;;;;;;14.63;12.60;;;;;;;7.93;97.18;97791.97;4181866;28;20209;-80
2023/04/21 05:37:57;;;;;;;14.88;11.60;;;;;;;8.01;95.84;97790.53;4180016;28;20577;-81
2023/04/21 05:40:00;;;;;;;15.77;11.52;;;;;;;8.05;97.50;97792.03;4185203;28;20609;-81
2023/04/21 05:42:03;;;;;;;15.02;11.27;;;;;;;8.11;96.13;97794.25;4172262;28;20242;-81
2023/04/21 05:44:07;;;;;;;14.27;11.77;;;;;;;8.13;97.73;97795.84;4189020;28;20208;-81
2023/04/21 05:46:11;;;;;;;16.27;12.45;;;;;;;8.22;97.74;97794.41;4182369;28;20315;-81
2023/04/21 05:48:14;;;;;;;16.60;12.80;;;;;;;8.38;96.33;97795.13;4187575;28;20743;-81
2023/04/21 05:50:17;;;;;;;16.77;12.68;;;;;;;8.46;96.27;97807.50;4184484;28;21020;-81
2023/04/21 05:52:21;;;;;;;17.80;12.70;;;;;;;8.46;96.28;97807.50;4180866;28;20756;-81
2023/04/21 05:54:24;;;;;;;16.75;12.25;;;;;;;8.42;95.95;97814.75;4184249;28;21007;-81
2023/04/21 05:56:27;;;;;;;15.82;12.93;;;;;;;8.39;96.05;97815.81;4187237;28;20681;-83
2023/04/21 05:58:31;;;;;;;16.45;14.18;;;;;;;8.40;97.19;97803.63;4168048;28;20224;-81
2023/04/21 06:00:34;;;;;;;19.65;14.50;;;;;;;8.41;97.63;97807.91;4190453;28;20327;-80
2023/04/21 06:02:38;;;;;;;17.38;12.85;;;;;;;8.42;97.43;97810.41;4177160;28;20206;-80
2023/04/21 06:04:42;;;;;;;16.10;12.00;;;;;;;8.43;97.13;97803.44;4195155;28;20233;-80
2023/04/21 06:06:45;;;;;;;15.50;12.50;;;;;;;8.45;97.24;97797.22;4192115;28;20627;-81
2023/04/21 06:08:48;;;;;;;16.67;13.35;;;;;;;8.48;95.78;97789.22;4190680;28;20240;-80
2023/04/21 06:10:51;;;;;;;15.40;12.55;;;;;;;8.54;97.54;97786.22;4173013;28;20206;-80
2023/04/21 06:12:55;;;;;;;16.57;12.80;;;;;;;8.56;97.02;97781.75;4188840;28;20213;-80
2023/04/21 06:14:58;;;;;;;18.73;13.65;;;;;;;8.60;96.98;97781.47;4174089;28;20613;-80
2023/04/21 06:17:01;;;;;;;18.65;14.07;;;;;;;8.61;96.80;97779.69;4186285;28;20613;-82
2023/04/21 06:19:06;;;;;;;22.40;14.40;;;;;;;8.62;97.15;97781.34;4179417;28;20224;-82
2023/04/21 06:21:09;;;;;;;19.63;14.07;;;;;;;8.66;96.78;97782.81;4191389;28;20681;-81
2023/04/21 06:23:12;;;;;;;19.30;14.20;;;;;;;8.72;96.80;97779.81;4194158;28;20660;-81
2023/04/21 06:25:15;;;;;;;18.83;14.25;;;;;;;8.77;97.37;97781.19;4189431;28;20209;-80
2023/04/21 06:27:18;;;;;;;16.83;13.50;;;;;;;8.85;98.03;97780.66;4184202;28;20211;-79
2023/04/21 06:29:21;;;;;;;19.02;13.55;;;;;;;8.92;98.55;97784.53;4169423;28;20209;-80
2023/04/21 06:31:25;;;;;;;21.57;16.80;;;;;;;8.99;97.36;97779.66;4185331;28;20539;-80
2023/04/21 06:33:28;;;;;;;17.50;13.20;;;;;;;9.09;98.11;97783.28;4188475;28;20639;-80
2023/04/21 06:35:33;;;;;;;15.55;13.23;;;;;;;9.21;97.62;97779.84;4187807;28;20631;-81
2023/04/21 06:37:36;;;;;;;16.60;13.05;;;;;;;9.35;97.68;97789.31;4191167;28;20725;-81
2023/04/21 06:39:39;;;;;;;20.33;15.27;;;;;;;9.44;97.33;97789.53;4186446;28;20814;-81
2023/04/21 06:41:42;;;;;;;18.27;14.70;;;;;;;9.48;97.61;97793.59;4192679;28;20234;-80
2023/04/21 06:43:45;;;;;;;15.70;12.93;;;;;;;9.50;97.39;97796.91;4171167;28;20640;-81
2023/04/21 06:45:49;;;;;;;23.53;18.77;;;;;;;9.53;96.56;97789.75;4179368;28;20233;-81
2023/04/21 06:47:52;;;;;;;18.17;15.13;;;;;;;9.56;97.19;97792.13;4169896;28;21303;-82
2023/04/21 06:49:55;;;;;;;14.37;11.43;;;;;;;9.57;96.75;97796.38;4185859;28;20203;-83
2023/04/21 06:51:59;;;;;;;18.03;14.13;;;;;;;9.60;96.48;97795.34;4186762;28;20642;-81
2023/04/21 06:54:03;;;;;;;16.63;13.93;;;;;;;9.63;96.64;97797.75;4190112;28;20634;-80
2023/04/21 06:56:06;;;;;;;13.93;11.10;;;;;;;9.67;96.94;97794.00;4186819;28;20645;-81
2023/04/21 06:58:10;;;;;;;13.13;10.20;;;;;;;9.70;95.40;97796.38;4185369;28;20823;-81
2023/04/21 07:00:14;;;;;;;16.17;12.48;;;;;;;9.75;94.57;97802.91;4192646;28;20627;-80
2023/04/21 07:02:17;;;;;;;13.57;10.57;;;;;;;9.81;95.47;97799.06;4186504;28;20214;-80
2023/04/21 07:04:20;;;;;;;10.73;9.00;;;;;;;9.80;94.02;97794.78;4193688;28;20632;-81
2023/04/21 07:06:23;;;;;;;12.10;10.15;;;;;;;9.84;94.36;97803.09;4180877;28;20704;-80
2023/04/21 07:08:28;;;;;;;19.73;16.47;;;;;;;9.91;94.76;97800.94;4181564;28;20202;-80
2023/04/21 07:10:31;;;;;;;12.90;10.70;;;;;;;9.94;94.54;97800.75;4188179;28;20635;-80
2023/04/21 07:12:34;;;;;;;13.13;10.50;;;;;;;9.99;94.25;97804.66;4189919;28;20623;-80
2023/04/21 07:14:37;;;;;;;13.47;10.60;;;;;;;10.12;94.47;97805.47;4172074;28;20956;-80
2023/04/21 07:16:40;;;;;;;12.05;10.77;;;;;;;10.27;94.71;97804.38;4187527;28;20647;-81
2023/04/21 07:18:43;;;;;;;13.98;12.10;;;;;;;10.65;96.10;97805.06;4191623;28;20224;-82
2023/04/21 07:20:47;;;;;;;13.77;12.07;;;;;;;11.04;93.72;97808.97;4168773;28;20294;-81
2023/04/21 07:22:50;;;;;;;15.67;13.07;;;;;;;11.19;94.28;97797.38;4183736;28;20651;-83
2023/04/21 07:24:54;;;;;;;14.50;12.40;;;;;;;11.11;90.90;97794.53;4182841;28;21093;-83
2023/04/21 07:26:57;;;;;;;14.33;12.07;;;;;;;10.99;90.95;97795.44;4203231;28;20713;-82
2023/04/21 07:29:00;;;;;;;14.97;12.40;;;;;;;10.88;91.20;97792.81;4186205;28;21432;-82
2023/04/21 07:31:04;;;;;;;13.23;11.73;;;;;;;10.80;91.29;97789.91;4190249;28;20635;-83
2023/04/21 07:33:08;;;;;;;16.60;12.40;;;;;;;10.77;90.49;97788.50;4186114;28;20712;-83
2023/04/21 07:35:11;;;;;;;14.80;11.90;;;;;;;10.73;91.49;97792.28;4184912;28;20788;-83
2023/04/21 07:37:14;;;;;;;16.80;13.40;;;;;;;10.76;92.74;97782.44;4187293;28;21036;-83
2023/04/21 07:39:17;;;;;;;16.70;12.80;;;;;;;10.81;92.16;97783.78;4188521;28;21441;-83
2023/04/21 07:41:22;;;;;;;12.83;11.13;;;;;;;10.87;90.96;97779.88;4183494;28;20675;-83
2023/04/21 07:43:25;;;;;;;17.90;14.90;;;;;;;10.83;90.72;97771.44;4180571;28;21758;-83
2023/04/21 07:45:28;;;;;;;15.83;12.90;;;;;;;10.75;92.31;97772.13;4190100;28;20624;-82
2023/04/21 07:47:32;;;;;;;16.83;13.80;;;;;;;10.77;91.48;97768.47;4188753;28;20627;-81
2023/04/21 07:49:35;;;;;;;13.90;11.40;;;;;;;10.82;91.35;97772.41;4171989;28;20621;-79
2023/04/21 07:51:39;;;;;;;13.43;11.80;;;;;;;10.95;90.65;97773.13;4191174;28;20694;-79
2023/04/21 07:53:42;;;;;;;15.90;13.53;;;;;;;11.03;91.38;97760.34;4195761;28;20684;-79
2023/04/21 07:55:45;;;;;;;15.43;13.30;;;;;;;11.09;91.17;97762.47;4185448;28;20635;-79
2023/04/21 07:57:52;;;;;;;17.83;14.70;;;;;;;11.11;91.79;97755.38;4188159;28;21226;-79
2023/04/21 07:59:56;;;;;;;18.60;15.00;;;;;;;11.14;90.40;97754.31;4190450;28;20639;-80
2023/04/21 08:01:59;;;;;;;18.17;14.10;;;;;;;11.17;91.25;97762.75;4167142;28;20771;-78
2023/04/21 08:04:02;;;;;;;15.57;12.67;;;;;;;11.23;92.46;97767.50;4171185;28;20652;-79
2023/04/21 08:06:06;;;;;;;16.33;13.47;;;;;;;11.24;90.53;97758.72;4179423;28;21067;-80
2023/04/21 08:08:10;;;;;;;19.00;14.60;;;;;;;11.29;91.44;97764.44;4185185;28;20995;-78
2023/04/21 08:10:13;;;;;;;23.80;16.93;;;;;;;11.29;91.93;97757.44;4180089;28;20634;-79
2023/04/21 08:12:17;;;;;;;21.43;14.43;;;;;;;11.37;93.72;97770.72;4183022;28;21309;-79
2023/04/21 08:14:21;;;;;;;18.50;15.17;;;;;;;11.46;92.95;97761.34;4168862;28;20629;-79
2023/04/21 08:16:24;;;;;;;14.90;12.50;;;;;;;11.51;92.39;97767.06;4183880;28;21008;-78
2023/04/21 08:18:28;;;;;;;15.40;12.20;;;;;;;11.54;91.53;97770.28;4187474;28;20651;-81
2023/04/21 08:20:31;;;;;;;15.87;12.40;;;;;;;11.51;90.25;97767.06;4176322;28;20640;-84
2023/04/21 08:22:35;;;;;;;18.57;14.17;;;;;;;11.52;91.33;97764.34;4188457;28;20716;-84
2023/04/21 08:24:38;;;;;;;16.60;13.70;;;;;;;11.60;91.79;97766.38;4184227;28;20651;-80
2023/04/21 08:26:41;;;;;;;19.80;15.30;;;;;;;11.71;90.96;97761.97;4165675;28;20673;-82
2023/04/21 08:28:47;;;;;;;19.23;14.70;;;;;;;11.86;92.03;97769.44;4186363;28;20643;-79
2023/04/21 08:30:52;;;;;;;18.17;14.20;;;;;;;11.97;90.02;97777.28;4184465;28;20644;-79
2023/04/21 08:32:55;;;;;;;17.83;13.57;;;;;;;11.97;89.51;97777.28;4177672;28;20718;-77
2023/04/21 08:34:58;;;;;;;19.43;15.07;;;;;;;11.98;88.96;97773.72;4177742;28;20671;-78
2023/04/21 08:37:01;;;;;;;15.53;13.20;;;;;;;12.02;89.08;97769.06;4174836;28;21177;-77
2023/04/21 08:39:04;;;;;;;16.20;12.90;;;;;;;12.05;89.36;97767.03;4187641;28;20649;-77
2023/04/21 08:41:08;;;;;;;17.67;13.17;;;;;;;12.13;88.29;97764.63;4192084;28;20723;-77
2023/04/21 08:43:12;;;;;;;13.73;11.30;;;;;;;12.24;89.80;97767.25;4187601;28;20640;-77
2023/04/21 08:45:15;;;;;;;16.30;13.47;;;;;;;12.39;89.32;97763.41;4167296;28;20645;-78
2023/04/21 08:47:20;;;;;;;17.77;13.30;;;;;;;12.54;89.45;97770.81;4200284;28;20667;-78
2023/04/21 08:49:24;;;;;;;16.63;12.67;;;;;;;12.67;89.26;97778.50;4183613;28;20633;-78
2023/04/21 08:51:29;;;;;;;15.73;12.77;;;;;;;12.80;88.71;97783.44;4179679;28;20646;-77
2023/04/21 08:53:32;;;;;;;15.93;12.67;;;;;;;12.90;87.96;97792.22;4180855;28;20682;-78
2023/04/21 08:55:35;;;;;;;15.80;12.07;;;;;;;12.98;86.93;97783.75;4187770;28;20646;-77
2023/04/21 08:57:38;;;;;;;16.00;13.50;;;;;;;13.10;85.29;97777.50;4174323;28;20640;-78
2023/04/21 08:59:41;;;;;;;14.80;13.27;;;;;;;13.15;85.23;97786.63;4181631;28;20772;-77
2023/04/21 09:02:07;;;;;;;13.83;12.30;;;;;;;13.26;84.44;97783.91;4183804;28;20639;-77
2023/04/21 09:04:18;;;;;;;15.50;12.90;;;;;;;13.40;84.06;97792.28;4203161;28;20639;-78
2023/04/21 09:06:21;;;;;;;15.43;12.10;;;;;;;13.55;84.08;97785.75;4187808;28;20759;-78
2023/04/21 09:08:27;;;;;;;14.50;11.60;;;;;;;13.77;83.12;97796.91;4172373;28;20642;-78
2023/04/21 09:10:30;;;;;;;13.77;11.43;;;;;;;14.09;83.27;97797.63;4193117;28;20727;-78
2023/04/21 09:12:33;;;;;;;12.70;11.10;;;;;;;14.29;81.55;97792.28;4174973;28;21211;-78
2023/04/21 09:14:36;;;;;;;12.83;10.30;;;;;;;14.40;81.24;97786.94;4187814;28;20634;-78
2023/04/21 09:16:39;;;;;;;11.60;10.40;;;;;;;14.67;82.33;97790.56;4191575;28;20633;-78
2023/04/21 09:18:43;;;;;;;13.13;10.70;;;;;;;14.85;79.22;97783.63;4189264;28;20669;-78
2023/04/21 09:20:50;;;;;;;12.17;10.50;;;;;;;14.97;78.47;97793.03;4190456;28;20633;-78
2023/04/21 09:22:54;;;;;;;14.03;11.27;;;;;;;15.19;82.63;97788.34;4186045;28;20634;-78
2023/04/21 09:24:59;;;;;;;12.60;10.60;;;;;;;15.45;78.43;97788.59;4172938;28;20651;-78
2023/04/21 09:27:03;;;;;;;11.73;10.03;;;;;;;15.64;79.81;97784.09;4191932;28;20764;-78
2023/04/21 09:29:07;;;;;;;11.87;9.90;;;;;;;15.49;75.20;97776.81;4186350;28;21241;-78
2023/04/21 09:31:15;;;;;;;13.17;10.43;;;;;;;15.39;76.99;97768.13;4185027;28;20725;-78
2023/04/21 09:33:18;;;;;;;12.80;10.70;;;;;;;15.56;79.15;97771.69;4184879;28;20826;-78
2023/04/21 09:35:33;;;;;;;12.93;11.37;;;;;;;15.81;81.50;97773.66;4185327;28;20638;-78